Aérodrome :
LOGIN :

S'inscrire | Disclaimer

   EN    FR    IT 

 










Légende :    VFR   VFR Marginal   IFR   IFR Intensif   IFR Très Intensif
Visi : 
Plafond : 
>= 8 km
>= 3000ft
5 à 8 km
1000 à 3000 ft
1500m à 5 km
500 à 1000 ft
800 à 1500m
200 à 500 ft
< 800m
< 200 ft
Symboles :   Orages  Brouillard  Fortes neiges  Fortes précipitations  Vent > 20 kt
SIGMETs :   Divers  Orages  Givrage  Turbulence  Onde Orograph.  Cendres Volcan.







- Altitude de l'aérodrome : 257 ft
- Code IATA : MAN
- Voir les cartes d'approche


EGCC - Manchester

DERNIER METAR :
  • 251950Z 36010KT 9999 FEW026CB 05/00 Q1016 TEMPO SHRA

METARs EXPIRÉS :
  • 251920Z 35005KT 9999 FEW028CB 06/01 Q1016 NOSIG
  • 251850Z 35012KT 9999 FEW029CB 06/01 Q1016 TEMPO SHRA
  • 251820Z 01007KT 9999 FEW031CB 06/02 Q1016 RESHRA TEMPO SHRA
  • 251750Z 35010KT 9999 6000SE SHRA SCT032CB 06/02 Q1016 BECMG NSW
  • 251720Z AUTO 34011KT 9999 //////CB 07/02 Q1015 TEMPO SHRA

TAF TAF EGCC
Valide du 25 à 18h jusqu'au 27 à 00h UTC


251657Z 2518/2624 32009KT 9999 SCT040
PROB30
TEMPO 2518/2520 35015G25KT 7000 SHRAGS
PROB30
TEMPO 2615/2618 7000 SHRA
ATIS : +44 161 499 2324
Pas de NOTAMs connus pour ce terrain.



MET'MAP, la Météo Aéronautique d'un coup d'oeil ! - Copyright ORBIFLY Décembre 2007 - Disclaimer

ORBIFLY MET'MAP TEAM :

Programmation & Développement : Alexandra Zaïnal
Conception & Développement : Baudouin d'Aumeries
Co-Programmation & Développement : Marc-Olivier Méhu
Soutien technique & logistique : Manuel Goepfert

Contact : metmap@orbifly.com




SOURCES & CREDITS :

   NOAA